sensor_id;sensor_type;location;lat;lon;timestamp;temperature;humidity
44731;DHT22;30458;47.448;19.032;2022-12-20T00:05:54;1.60;99.90
44731;DHT22;30458;47.448;19.032;2022-12-20T00:16:12;1.70;99.90
44731;DHT22;30458;47.448;19.032;2022-12-20T00:26:20;1.80;99.90
44731;DHT22;30458;47.448;19.032;2022-12-20T00:36:23;1.90;99.90
44731;DHT22;30458;47.448;19.032;2022-12-20T00:46:24;2.00;99.90
44731;DHT22;30458;47.448;19.032;2022-12-20T00:56:26;2.00;99.90
44731;DHT22;30458;47.448;19.032;2022-12-20T01:06:30;1.90;99.90
44731;DHT22;30458;47.448;19.032;2022-12-20T01:16:39;1.90;99.90
44731;DHT22;30458;47.448;19.032;2022-12-20T01:26:43;1.90;99.90
44731;DHT22;30458;47.448;19.032;2022-12-20T01:36:44;1.90;99.90
44731;DHT22;30458;47.448;19.032;2022-12-20T01:46:49;1.80;99.90
44731;DHT22;30458;47.448;19.032;2022-12-20T01:57:00;1.60;99.90
44731;DHT22;30458;47.448;19.032;2022-12-20T02:07:02;1.40;99.90
44731;DHT22;30458;47.448;19.032;2022-12-20T02:38:23;1.20;99.90
44731;DHT22;30458;47.448;19.032;2022-12-20T02:48:26;1.30;99.90
44731;DHT22;30458;47.448;19.032;2022-12-20T02:58:42;1.40;99.90
44731;DHT22;30458;47.448;19.032;2022-12-20T03:08:47;1.40;99.90
44731;DHT22;30458;47.448;19.032;2022-12-20T03:18:50;1.30;99.90
44731;DHT22;30458;47.448;19.032;2022-12-20T03:28:53;1.10;99.90
44731;DHT22;30458;47.448;19.032;2022-12-20T03:38:57;1.20;99.90
44731;DHT22;30458;47.448;19.032;2022-12-20T03:48:59;1.20;99.90
44731;DHT22;30458;47.448;19.032;2022-12-20T03:59:03;1.50;99.90
44731;DHT22;30458;47.448;19.032;2022-12-20T04:09:05;1.70;99.90
44731;DHT22;30458;47.448;19.032;2022-12-20T04:19:17;1.80;99.90
44731;DHT22;30458;47.448;19.032;2022-12-20T04:29:20;1.50;99.90
44731;DHT22;30458;47.448;19.032;2022-12-20T04:39:22;1.20;99.90
44731;DHT22;30458;47.448;19.032;2022-12-20T04:49:41;1.00;99.90
44731;DHT22;30458;47.448;19.032;2022-12-20T04:59:45;1.10;99.90
44731;DHT22;30458;47.448;19.032;2022-12-20T05:09:47;1.50;99.90
44731;DHT22;30458;47.448;19.032;2022-12-20T05:19:50;1.70;99.90
44731;DHT22;30458;47.448;19.032;2022-12-20T05:29:51;1.90;99.90
44731;DHT22;30458;47.448;19.032;2022-12-20T05:39:52;1.70;99.90
44731;DHT22;30458;47.448;19.032;2022-12-20T05:49:57;1.60;99.90
44731;DHT22;30458;47.448;19.032;2022-12-20T06:00:08;1.80;99.90
44731;DHT22;30458;47.448;19.032;2022-12-20T06:10:19;1.70;99.90
44731;DHT22;30458;47.448;19.032;2022-12-20T06:20:28;1.50;99.90
44731;DHT22;30458;47.448;19.032;2022-12-20T06:30:33;1.20;99.90
44731;DHT22;30458;47.448;19.032;2022-12-20T06:40:43;1.20;99.90
44731;DHT22;30458;47.448;19.032;2022-12-20T06:50:44;1.10;99.90
44731;DHT22;30458;47.448;19.032;2022-12-20T07:00:45;1.10;99.90
44731;DHT22;30458;47.448;19.032;2022-12-20T07:10:46;1.10;99.90
44731;DHT22;30458;47.448;19.032;2022-12-20T07:20:46;1.00;99.90
44731;DHT22;30458;47.448;19.032;2022-12-20T07:30:47;1.10;99.90
44731;DHT22;30458;47.448;19.032;2022-12-20T07:40:48;1.50;99.90
44731;DHT22;30458;47.448;19.032;2022-12-20T07:50:54;2.10;99.90
44731;DHT22;30458;47.448;19.032;2022-12-20T08:00:57;2.10;99.90
44731;DHT22;30458;47.448;19.032;2022-12-20T08:11:01;3.60;99.90
44731;DHT22;30458;47.448;19.032;2022-12-20T08:21:05;4.70;99.90
44731;DHT22;30458;47.448;19.032;2022-12-20T08:31:08;3.40;99.90
44731;DHT22;30458;47.448;19.032;2022-12-20T08:41:12;2.50;99.90
44731;DHT22;30458;47.448;19.032;2022-12-20T08:51:18;3.10;99.90
44731;DHT22;30458;47.448;19.032;2022-12-20T09:01:21;6.00;99.90
44731;DHT22;30458;47.448;19.032;2022-12-20T09:11:28;6.70;97.80
44731;DHT22;30458;47.448;19.032;2022-12-20T09:21:32;7.30;97.00
44731;DHT22;30458;47.448;19.032;2022-12-20T09:31:33;7.60;96.00
44731;DHT22;30458;47.448;19.032;2022-12-20T09:41:42;5.10;98.90
44731;DHT22;30458;47.448;19.032;2022-12-20T09:51:56;3.70;99.90
44731;DHT22;30458;47.448;19.032;2022-12-20T10:02:00;3.10;99.90
44731;DHT22;30458;47.448;19.032;2022-12-20T10:22:52;3.30;99.90
44731;DHT22;30458;47.448;19.032;2022-12-20T10:32:57;3.40;99.90
44731;DHT22;30458;47.448;19.032;2022-12-20T10:43:00;3.10;99.90
44731;DHT22;30458;47.448;19.032;2022-12-20T10:53:16;3.50;99.90
44731;DHT22;30458;47.448;19.032;2022-12-20T11:03:21;3.00;99.90
44731;DHT22;30458;47.448;19.032;2022-12-20T11:13:24;3.00;99.90
44731;DHT22;30458;47.448;19.032;2022-12-20T11:23:39;3.00;99.90
44731;DHT22;30458;47.448;19.032;2022-12-20T11:44:11;3.20;99.90
44731;DHT22;30458;47.448;19.032;2022-12-20T11:54:25;3.50;99.90
44731;DHT22;30458;47.448;19.032;2022-12-20T12:04:32;3.60;99.90
44731;DHT22;30458;47.448;19.032;2022-12-20T12:24:57;3.50;99.90
44731;DHT22;30458;47.448;19.032;2022-12-20T12:45:46;3.90;99.90
44731;DHT22;30458;47.448;19.032;2022-12-20T12:55:51;3.90;99.90
44731;DHT22;30458;47.448;19.032;2022-12-20T13:05:55;3.80;99.90
44731;DHT22;30458;47.448;19.032;2022-12-20T13:16:05;3.90;99.90
44731;DHT22;30458;47.448;19.032;2022-12-20T13:37:27;3.60;99.90
44731;DHT22;30458;47.448;19.032;2022-12-20T13:47:39;3.60;99.90
44731;DHT22;30458;47.448;19.032;2022-12-20T13:57:43;3.50;99.90
44731;DHT22;30458;47.448;19.032;2022-12-20T14:07:59;3.50;99.90
44731;DHT22;30458;47.448;19.032;2022-12-20T14:18:14;3.70;99.90
44731;DHT22;30458;47.448;19.032;2022-12-20T14:28:34;3.80;99.90
44731;DHT22;30458;47.448;19.032;2022-12-20T14:38:44;3.80;99.90
44731;DHT22;30458;47.448;19.032;2022-12-20T14:48:46;3.70;99.90
44731;DHT22;30458;47.448;19.032;2022-12-20T14:59:12;3.70;99.90
44731;DHT22;30458;47.448;19.032;2022-12-20T15:09:15;3.80;99.90
44731;DHT22;30458;47.448;19.032;2022-12-20T15:19:19;3.90;99.90
44731;DHT22;30458;47.448;19.032;2022-12-20T15:29:22;3.70;99.90
44731;DHT22;30458;47.448;19.032;2022-12-20T15:39:26;3.60;99.90
44731;DHT22;30458;47.448;19.032;2022-12-20T15:49:29;3.60;99.90
44731;DHT22;30458;47.448;19.032;2022-12-20T15:59:30;3.50;99.90
44731;DHT22;30458;47.448;19.032;2022-12-20T16:09:31;3.50;99.90
44731;DHT22;30458;47.448;19.032;2022-12-20T16:19:32;3.50;99.90
44731;DHT22;30458;47.448;19.032;2022-12-20T16:29:33;3.40;99.90
44731;DHT22;30458;47.448;19.032;2022-12-20T16:39:36;3.40;99.90
44731;DHT22;30458;47.448;19.032;2022-12-20T16:49:39;3.40;99.90
44731;DHT22;30458;47.448;19.032;2022-12-20T16:59:42;3.40;99.90
44731;DHT22;30458;47.448;19.032;2022-12-20T17:09:46;3.40;99.90
44731;DHT22;30458;47.448;19.032;2022-12-20T17:19:49;3.40;99.90
44731;DHT22;30458;47.448;19.032;2022-12-20T17:29:52;3.30;99.90
44731;DHT22;30458;47.448;19.032;2022-12-20T17:39:53;3.30;99.90
44731;DHT22;30458;47.448;19.032;2022-12-20T17:49:56;3.40;99.90
44731;DHT22;30458;47.448;19.032;2022-12-20T18:00:00;3.40;99.90
44731;DHT22;30458;47.448;19.032;2022-12-20T18:10:05;3.40;99.90
44731;DHT22;30458;47.448;19.032;2022-12-20T18:20:07;3.50;99.90
44731;DHT22;30458;47.448;19.032;2022-12-20T18:30:10;3.60;99.90
44731;DHT22;30458;47.448;19.032;2022-12-20T18:40:12;3.50;99.90
44731;DHT22;30458;47.448;19.032;2022-12-20T18:50:13;3.30;99.90
44731;DHT22;30458;47.448;19.032;2022-12-20T19:00:14;3.30;99.90
44731;DHT22;30458;47.448;19.032;2022-12-20T19:10:17;3.30;99.90
44731;DHT22;30458;47.448;19.032;2022-12-20T19:20:18;3.30;99.90
44731;DHT22;30458;47.448;19.032;2022-12-20T19:30:20;3.40;99.90
44731;DHT22;30458;47.448;19.032;2022-12-20T19:40:23;3.40;99.90
44731;DHT22;30458;47.448;19.032;2022-12-20T19:50:27;3.50;99.90
44731;DHT22;30458;47.448;19.032;2022-12-20T20:00:28;3.50;99.90
44731;DHT22;30458;47.448;19.032;2022-12-20T20:10:29;3.40;99.90
44731;DHT22;30458;47.448;19.032;2022-12-20T20:20:30;3.60;99.90
44731;DHT22;30458;47.448;19.032;2022-12-20T20:30:32;3.80;99.90
44731;DHT22;30458;47.448;19.032;2022-12-20T20:40:35;3.80;99.90
44731;DHT22;30458;47.448;19.032;2022-12-20T20:50:36;3.80;99.90
44731;DHT22;30458;47.448;19.032;2022-12-20T21:00:37;3.80;99.90
44731;DHT22;30458;47.448;19.032;2022-12-20T21:10:38;3.80;99.90
44731;DHT22;30458;47.448;19.032;2022-12-20T21:20:41;3.70;99.90
44731;DHT22;30458;47.448;19.032;2022-12-20T21:30:42;3.60;99.90
44731;DHT22;30458;47.448;19.032;2022-12-20T21:40:43;3.60;99.90
44731;DHT22;30458;47.448;19.032;2022-12-20T21:50:44;3.60;99.90
44731;DHT22;30458;47.448;19.032;2022-12-20T22:00:47;3.40;99.90
44731;DHT22;30458;47.448;19.032;2022-12-20T22:11:03;3.40;99.90
44731;DHT22;30458;47.448;19.032;2022-12-20T22:21:05;3.30;99.90
44731;DHT22;30458;47.448;19.032;2022-12-20T22:31:08;3.30;99.90
44731;DHT22;30458;47.448;19.032;2022-12-20T22:41:16;3.30;99.90
44731;DHT22;30458;47.448;19.032;2022-12-20T22:51:19;3.30;99.90
44731;DHT22;30458;47.448;19.032;2022-12-20T23:01:20;3.20;99.90
44731;DHT22;30458;47.448;19.032;2022-12-20T23:11:26;3.30;99.90
44731;DHT22;30458;47.448;19.032;2022-12-20T23:21:48;3.40;99.90
44731;DHT22;30458;47.448;19.032;2022-12-20T23:32:07;3.30;99.90
44731;DHT22;30458;47.448;19.032;2022-12-20T23:42:10;3.40;99.90
44731;DHT22;30458;47.448;19.032;2022-12-20T23:52:11;3.40;99.90
